San Antonio, Texas
Current Conditions -  °F | °C
As of 12:58 PM on Sunday 23 Nov 2014 (Local Time) from KSKF Reporting Station
Clear Clear  
Wind Chill: 78°   Ceiling: Unl
Heat Index: 78°   Visibility: 10mi
Dew Point: 48°   Wind: 13mph
Humidity: 35%   Direction: 240°WSW
Pressure: 29.61"   Gusts: NA
Location:  29.42°N, 98.49°W
Report Text: KSKF 231858Z AUTO 24011KT 10SM CLR 25/09 A2961 RMK AO2 SLP022 T02540088 $
Loading
Personal Weather Stations






























Interactive Weather Map New forecast layout! Learn more

10-Day Weather Forecast

Advertisements
Track Severe Weather on mobile